sensor_id;sensor_type;location;lat;lon;timestamp;temperature;humidity
20590;DHT22;10453;50.810;12.540;2023-01-19T00:01:48;-5.10;99.90
20590;DHT22;10453;50.810;12.540;2023-01-19T00:06:05;-5.30;99.90
20590;DHT22;10453;50.810;12.540;2023-01-19T00:10:23;-5.30;99.90
20590;DHT22;10453;50.810;12.540;2023-01-19T00:14:40;-5.30;99.90
20590;DHT22;10453;50.810;12.540;2023-01-19T00:18:57;-5.30;99.90
20590;DHT22;10453;50.810;12.540;2023-01-19T00:23:15;-5.30;99.90
20590;DHT22;10453;50.810;12.540;2023-01-19T00:27:32;-5.40;99.90
20590;DHT22;10453;50.810;12.540;2023-01-19T00:31:50;-5.30;99.90
20590;DHT22;10453;50.810;12.540;2023-01-19T00:36:08;-5.40;99.90
20590;DHT22;10453;50.810;12.540;2023-01-19T00:40:25;-5.40;99.90
20590;DHT22;10453;50.810;12.540;2023-01-19T00:44:42;-5.60;99.90
20590;DHT22;10453;50.810;12.540;2023-01-19T00:48:59;-5.50;99.90
20590;DHT22;10453;50.810;12.540;2023-01-19T00:53:17;-5.30;99.90
20590;DHT22;10453;50.810;12.540;2023-01-19T00:57:34;-5.20;99.90
20590;DHT22;10453;50.810;12.540;2023-01-19T01:01:51;-5.20;99.90
20590;DHT22;10453;50.810;12.540;2023-01-19T01:06:08;-5.40;99.90
20590;DHT22;10453;50.810;12.540;2023-01-19T01:10:28;-5.40;99.90
20590;DHT22;10453;50.810;12.540;2023-01-19T01:14:45;-5.40;99.90
20590;DHT22;10453;50.810;12.540;2023-01-19T01:19:02;-5.40;99.90
20590;DHT22;10453;50.810;12.540;2023-01-19T01:23:19;-5.40;99.90
20590;DHT22;10453;50.810;12.540;2023-01-19T01:27:39;-5.40;99.90
20590;DHT22;10453;50.810;12.540;2023-01-19T01:31:56;-5.40;99.90
20590;DHT22;10453;50.810;12.540;2023-01-19T01:36:13;-5.20;99.90
20590;DHT22;10453;50.810;12.540;2023-01-19T01:40:30;-5.10;99.90
20590;DHT22;10453;50.810;12.540;2023-01-19T01:44:51;-5.00;99.90
20590;DHT22;10453;50.810;12.540;2023-01-19T01:49:14;-4.80;99.90
20590;DHT22;10453;50.810;12.540;2023-01-19T01:53:33;-4.70;99.90
20590;DHT22;10453;50.810;12.540;2023-01-19T01:57:54;-4.50;99.90
20590;DHT22;10453;50.810;12.540;2023-01-19T02:02:17;-4.30;99.90
20590;DHT22;10453;50.810;12.540;2023-01-19T02:06:55;-4.20;99.90
20590;DHT22;10453;50.810;12.540;2023-01-19T02:11:31;-4.10;99.90
20590;DHT22;10453;50.810;12.540;2023-01-19T02:16:09;-4.10;99.90
20590;DHT22;10453;50.810;12.540;2023-01-19T02:20:28;-4.30;99.90
20590;DHT22;10453;50.810;12.540;2023-01-19T02:24:46;-4.40;99.90
20590;DHT22;10453;50.810;12.540;2023-01-19T02:29:11;-4.30;99.90
20590;DHT22;10453;50.810;12.540;2023-01-19T02:33:28;-4.20;99.90
20590;DHT22;10453;50.810;12.540;2023-01-19T02:37:46;-4.20;99.90
20590;DHT22;10453;50.810;12.540;2023-01-19T02:42:09;-4.10;99.90
20590;DHT22;10453;50.810;12.540;2023-01-19T02:46:27;-4.10;99.90
20590;DHT22;10453;50.810;12.540;2023-01-19T02:50:46;-4.10;99.90
20590;DHT22;10453;50.810;12.540;2023-01-19T02:55:16;-4.10;99.90
20590;DHT22;10453;50.810;12.540;2023-01-19T03:04:27;-4.30;99.90
20590;DHT22;10453;50.810;12.540;2023-01-19T03:09:00;-4.40;99.90
20590;DHT22;10453;50.810;12.540;2023-01-19T03:13:29;-4.50;99.90
20590;DHT22;10453;50.810;12.540;2023-01-19T03:17:50;-4.70;99.90
20590;DHT22;10453;50.810;12.540;2023-01-19T03:22:19;-4.80;99.90
20590;DHT22;10453;50.810;12.540;2023-01-19T03:26:40;-4.80;99.90
20590;DHT22;10453;50.810;12.540;2023-01-19T03:31:05;-4.90;99.90
20590;DHT22;10453;50.810;12.540;2023-01-19T03:35:27;-5.00;99.90
20590;DHT22;10453;50.810;12.540;2023-01-19T03:39:46;-5.10;99.90
20590;DHT22;10453;50.810;12.540;2023-01-19T03:44:04;-5.00;99.90
20590;DHT22;10453;50.810;12.540;2023-01-19T03:48:22;-4.90;99.90
20590;DHT22;10453;50.810;12.540;2023-01-19T03:52:40;-4.70;99.90
20590;DHT22;10453;50.810;12.540;2023-01-19T03:56:57;-4.60;99.90
20590;DHT22;10453;50.810;12.540;2023-01-19T04:01:15;-4.60;99.90
20590;DHT22;10453;50.810;12.540;2023-01-19T04:05:32;-4.40;99.90
20590;DHT22;10453;50.810;12.540;2023-01-19T04:09:49;-4.30;99.90
20590;DHT22;10453;50.810;12.540;2023-01-19T04:14:06;-4.40;99.90
20590;DHT22;10453;50.810;12.540;2023-01-19T04:18:24;-4.50;99.90
20590;DHT22;10453;50.810;12.540;2023-01-19T04:22:41;-4.50;99.90
20590;DHT22;10453;50.810;12.540;2023-01-19T04:26:58;-4.60;99.90
20590;DHT22;10453;50.810;12.540;2023-01-19T04:31:15;-4.80;99.90
20590;DHT22;10453;50.810;12.540;2023-01-19T04:35:32;-4.80;99.90
20590;DHT22;10453;50.810;12.540;2023-01-19T04:39:51;-4.80;99.90
20590;DHT22;10453;50.810;12.540;2023-01-19T04:44:08;-4.60;99.90
20590;DHT22;10453;50.810;12.540;2023-01-19T04:48:25;-4.40;99.90
20590;DHT22;10453;50.810;12.540;2023-01-19T04:52:42;-4.00;99.90
20590;DHT22;10453;50.810;12.540;2023-01-19T04:56:59;-4.20;99.90
20590;DHT22;10453;50.810;12.540;2023-01-19T05:01:16;-4.20;99.90
20590;DHT22;10453;50.810;12.540;2023-01-19T05:05:33;-4.20;99.90
20590;DHT22;10453;50.810;12.540;2023-01-19T05:09:51;-4.30;99.90
20590;DHT22;10453;50.810;12.540;2023-01-19T05:14:08;-4.30;99.90
20590;DHT22;10453;50.810;12.540;2023-01-19T05:18:25;-4.10;99.90
20590;DHT22;10453;50.810;12.540;2023-01-19T05:22:48;-4.10;99.90
20590;DHT22;10453;50.810;12.540;2023-01-19T05:27:06;-4.20;99.90
20590;DHT22;10453;50.810;12.540;2023-01-19T05:31:23;-4.20;99.90
20590;DHT22;10453;50.810;12.540;2023-01-19T05:35:41;-4.10;99.90
20590;DHT22;10453;50.810;12.540;2023-01-19T05:39:58;-4.00;99.90
20590;DHT22;10453;50.810;12.540;2023-01-19T05:44:15;-4.20;99.90
20590;DHT22;10453;50.810;12.540;2023-01-19T05:48:32;-4.20;99.90
20590;DHT22;10453;50.810;12.540;2023-01-19T05:52:49;-4.30;99.90
20590;DHT22;10453;50.810;12.540;2023-01-19T05:57:09;-4.40;99.90
20590;DHT22;10453;50.810;12.540;2023-01-19T06:01:26;-4.70;99.90
20590;DHT22;10453;50.810;12.540;2023-01-19T06:05:44;-4.90;99.90
20590;DHT22;10453;50.810;12.540;2023-01-19T06:10:01;-5.00;99.90
20590;DHT22;10453;50.810;12.540;2023-01-19T06:14:18;-5.10;99.90
20590;DHT22;10453;50.810;12.540;2023-01-19T06:18:35;-5.20;99.90
20590;DHT22;10453;50.810;12.540;2023-01-19T06:22:56;-4.80;99.90
20590;DHT22;10453;50.810;12.540;2023-01-19T06:27:13;-4.80;99.90
20590;DHT22;10453;50.810;12.540;2023-01-19T06:31:30;-4.60;99.90
20590;DHT22;10453;50.810;12.540;2023-01-19T06:35:49;-4.30;99.90
20590;DHT22;10453;50.810;12.540;2023-01-19T06:40:07;-4.30;99.90
20590;DHT22;10453;50.810;12.540;2023-01-19T06:44:24;-4.20;99.90
20590;DHT22;10453;50.810;12.540;2023-01-19T06:48:42;-4.20;99.90
20590;DHT22;10453;50.810;12.540;2023-01-19T06:52:59;-4.10;99.90
20590;DHT22;10453;50.810;12.540;2023-01-19T06:57:17;-4.00;99.90
20590;DHT22;10453;50.810;12.540;2023-01-19T07:01:34;-3.90;99.90
20590;DHT22;10453;50.810;12.540;2023-01-19T07:05:52;-3.80;99.90
20590;DHT22;10453;50.810;12.540;2023-01-19T07:10:10;-3.80;99.90
20590;DHT22;10453;50.810;12.540;2023-01-19T07:14:28;-3.80;99.90
20590;DHT22;10453;50.810;12.540;2023-01-19T07:18:49;-3.70;99.90
20590;DHT22;10453;50.810;12.540;2023-01-19T07:23:06;-3.70;99.90
20590;DHT22;10453;50.810;12.540;2023-01-19T07:27:24;-3.60;99.90
20590;DHT22;10453;50.810;12.540;2023-01-19T07:31:43;-3.50;99.90
20590;DHT22;10453;50.810;12.540;2023-01-19T07:36:01;-3.50;99.90
20590;DHT22;10453;50.810;12.540;2023-01-19T07:40:18;-3.30;99.90
20590;DHT22;10453;50.810;12.540;2023-01-19T07:44:35;-3.20;99.90
20590;DHT22;10453;50.810;12.540;2023-01-19T07:48:53;-3.10;99.90
20590;DHT22;10453;50.810;12.540;2023-01-19T07:53:10;-3.10;99.90
20590;DHT22;10453;50.810;12.540;2023-01-19T07:57:28;-3.00;99.90
20590;DHT22;10453;50.810;12.540;2023-01-19T08:01:45;-3.00;99.90
20590;DHT22;10453;50.810;12.540;2023-01-19T08:06:03;-3.00;99.90
20590;DHT22;10453;50.810;12.540;2023-01-19T08:10:21;-2.90;99.90
20590;DHT22;10453;50.810;12.540;2023-01-19T08:14:41;-2.90;99.90
20590;DHT22;10453;50.810;12.540;2023-01-19T08:18:58;-2.80;99.90
20590;DHT22;10453;50.810;12.540;2023-01-19T08:23:15;-2.70;99.90
20590;DHT22;10453;50.810;12.540;2023-01-19T08:27:34;-2.60;99.90
20590;DHT22;10453;50.810;12.540;2023-01-19T08:31:51;-2.50;99.90
20590;DHT22;10453;50.810;12.540;2023-01-19T08:36:11;-2.40;99.90
20590;DHT22;10453;50.810;12.540;2023-01-19T08:40:29;-2.30;99.90
20590;DHT22;10453;50.810;12.540;2023-01-19T08:44:49;-2.30;99.90
20590;DHT22;10453;50.810;12.540;2023-01-19T08:49:14;-2.10;99.90
20590;DHT22;10453;50.810;12.540;2023-01-19T08:53:31;-2.00;99.90
20590;DHT22;10453;50.810;12.540;2023-01-19T08:57:52;-1.90;99.90
20590;DHT22;10453;50.810;12.540;2023-01-19T09:02:10;-1.70;99.90
20590;DHT22;10453;50.810;12.540;2023-01-19T09:06:28;-1.60;99.90
20590;DHT22;10453;50.810;12.540;2023-01-19T09:10:47;-1.40;99.90
20590;DHT22;10453;50.810;12.540;2023-01-19T09:15:05;-1.20;99.90
20590;DHT22;10453;50.810;12.540;2023-01-19T09:19:22;-1.20;99.90
20590;DHT22;10453;50.810;12.540;2023-01-19T09:23:39;-1.00;99.90
20590;DHT22;10453;50.810;12.540;2023-01-19T09:27:58;-0.90;99.90
20590;DHT22;10453;50.810;12.540;2023-01-19T09:32:17;-0.80;99.90
20590;DHT22;10453;50.810;12.540;2023-01-19T09:36:35;-0.80;99.90
20590;DHT22;10453;50.810;12.540;2023-01-19T09:40:55;-0.80;99.90
20590;DHT22;10453;50.810;12.540;2023-01-19T09:45:21;-0.70;99.90
20590;DHT22;10453;50.810;12.540;2023-01-19T09:49:44;-0.60;99.90
20590;DHT22;10453;50.810;12.540;2023-01-19T09:54:12;-0.50;99.90
20590;DHT22;10453;50.810;12.540;2023-01-19T09:58:30;-0.40;99.90
20590;DHT22;10453;50.810;12.540;2023-01-19T10:02:56;-0.20;99.90
20590;DHT22;10453;50.810;12.540;2023-01-19T10:07:31;-0.30;99.90
20590;DHT22;10453;50.810;12.540;2023-01-19T10:11:56;-0.30;99.90
20590;DHT22;10453;50.810;12.540;2023-01-19T10:20:46;-0.20;99.90
20590;DHT22;10453;50.810;12.540;2023-01-19T10:25:14;-0.10;99.90
20590;DHT22;10453;50.810;12.540;2023-01-19T10:29:35;0.00;99.90
20590;DHT22;10453;50.810;12.540;2023-01-19T10:33:53;-0.20;99.90
20590;DHT22;10453;50.810;12.540;2023-01-19T10:38:12;0.00;99.90
20590;DHT22;10453;50.810;12.540;2023-01-19T10:42:30;0.10;99.90
20590;DHT22;10453;50.810;12.540;2023-01-19T10:46:48;0.20;99.90
20590;DHT22;10453;50.810;12.540;2023-01-19T10:51:07;0.20;99.90
20590;DHT22;10453;50.810;12.540;2023-01-19T10:55:36;0.10;99.90
20590;DHT22;10453;50.810;12.540;2023-01-19T10:59:54;0.20;99.90
20590;DHT22;10453;50.810;12.540;2023-01-19T11:04:21;0.40;99.90
20590;DHT22;10453;50.810;12.540;2023-01-19T11:08:38;0.40;99.90
20590;DHT22;10453;50.810;12.540;2023-01-19T11:13:03;0.70;99.90
20590;DHT22;10453;50.810;12.540;2023-01-19T11:17:24;0.80;99.90
20590;DHT22;10453;50.810;12.540;2023-01-19T11:21:41;0.90;99.90
20590;DHT22;10453;50.810;12.540;2023-01-19T11:26:00;0.80;99.90
20590;DHT22;10453;50.810;12.540;2023-01-19T11:30:22;0.60;99.90
20590;DHT22;10453;50.810;12.540;2023-01-19T11:34:40;0.50;99.90
20590;DHT22;10453;50.810;12.540;2023-01-19T11:38:59;0.40;99.90
20590;DHT22;10453;50.810;12.540;2023-01-19T11:43:18;0.50;99.90
20590;DHT22;10453;50.810;12.540;2023-01-19T11:47:42;0.40;99.90
20590;DHT22;10453;50.810;12.540;2023-01-19T11:52:26;0.30;99.90
20590;DHT22;10453;50.810;12.540;2023-01-19T11:56:46;0.20;99.90
20590;DHT22;10453;50.810;12.540;2023-01-19T12:05:32;0.10;99.90
20590;DHT22;10453;50.810;12.540;2023-01-19T12:09:52;0.10;99.90
20590;DHT22;10453;50.810;12.540;2023-01-19T12:14:24;0.10;99.90
20590;DHT22;10453;50.810;12.540;2023-01-19T12:18:46;0.20;99.90
20590;DHT22;10453;50.810;12.540;2023-01-19T12:27:39;0.20;99.90
20590;DHT22;10453;50.810;12.540;2023-01-19T12:40:46;0.30;99.90
20590;DHT22;10453;50.810;12.540;2023-01-19T12:45:06;0.30;99.90
20590;DHT22;10453;50.810;12.540;2023-01-19T12:53:55;0.20;99.90
20590;DHT22;10453;50.810;12.540;2023-01-19T12:58:15;0.10;99.90
20590;DHT22;10453;50.810;12.540;2023-01-19T13:02:42;0.10;99.90
20590;DHT22;10453;50.810;12.540;2023-01-19T13:11:21;0.30;99.90
20590;DHT22;10453;50.810;12.540;2023-01-19T13:15:42;0.20;99.90
20590;DHT22;10453;50.810;12.540;2023-01-19T13:20:02;0.40;99.90
20590;DHT22;10453;50.810;12.540;2023-01-19T13:24:21;0.30;99.90
20590;DHT22;10453;50.810;12.540;2023-01-19T13:28:42;0.20;99.90
20590;DHT22;10453;50.810;12.540;2023-01-19T13:33:05;0.30;99.90
20590;DHT22;10453;50.810;12.540;2023-01-19T13:37:42;0.30;99.90
20590;DHT22;10453;50.810;12.540;2023-01-19T13:42:04;0.30;99.90
20590;DHT22;10453;50.810;12.540;2023-01-19T13:46:22;0.20;99.90
20590;DHT22;10453;50.810;12.540;2023-01-19T13:50:41;0.20;99.90
20590;DHT22;10453;50.810;12.540;2023-01-19T13:55:02;0.20;99.90
20590;DHT22;10453;50.810;12.540;2023-01-19T13:59:21;0.20;99.90
20590;DHT22;10453;50.810;12.540;2023-01-19T14:03:39;0.10;99.90
20590;DHT22;10453;50.810;12.540;2023-01-19T14:08:01;0.00;99.90
20590;DHT22;10453;50.810;12.540;2023-01-19T14:12:18;-0.10;99.90
20590;DHT22;10453;50.810;12.540;2023-01-19T14:16:35;0.00;99.90
20590;DHT22;10453;50.810;12.540;2023-01-19T14:21:07;0.10;99.90
20590;DHT22;10453;50.810;12.540;2023-01-19T14:25:29;0.30;99.90
20590;DHT22;10453;50.810;12.540;2023-01-19T14:29:48;0.30;99.90
20590;DHT22;10453;50.810;12.540;2023-01-19T14:38:47;0.30;99.90
20590;DHT22;10453;50.810;12.540;2023-01-19T14:43:11;0.20;99.90
20590;DHT22;10453;50.810;12.540;2023-01-19T14:47:35;0.30;99.90
20590;DHT22;10453;50.810;12.540;2023-01-19T14:51:53;0.30;99.90
20590;DHT22;10453;50.810;12.540;2023-01-19T14:56:11;0.30;99.90
20590;DHT22;10453;50.810;12.540;2023-01-19T15:00:41;0.20;99.90
20590;DHT22;10453;50.810;12.540;2023-01-19T15:05:01;0.20;99.90
20590;DHT22;10453;50.810;12.540;2023-01-19T15:09:18;0.20;99.90
20590;DHT22;10453;50.810;12.540;2023-01-19T15:13:36;0.20;99.90
20590;DHT22;10453;50.810;12.540;2023-01-19T15:17:53;0.20;99.90
20590;DHT22;10453;50.810;12.540;2023-01-19T15:22:12;0.20;99.90
20590;DHT22;10453;50.810;12.540;2023-01-19T15:26:30;0.20;99.90
20590;DHT22;10453;50.810;12.540;2023-01-19T15:30:47;0.20;99.90
20590;DHT22;10453;50.810;12.540;2023-01-19T15:35:20;0.10;99.90
20590;DHT22;10453;50.810;12.540;2023-01-19T15:39:38;0.10;99.90
20590;DHT22;10453;50.810;12.540;2023-01-19T15:43:56;0.20;99.90
20590;DHT22;10453;50.810;12.540;2023-01-19T15:48:13;0.20;99.90
20590;DHT22;10453;50.810;12.540;2023-01-19T15:52:30;0.20;99.90
20590;DHT22;10453;50.810;12.540;2023-01-19T15:56:47;0.20;99.90
20590;DHT22;10453;50.810;12.540;2023-01-19T16:01:04;0.20;99.90
20590;DHT22;10453;50.810;12.540;2023-01-19T16:05:22;0.10;99.90
20590;DHT22;10453;50.810;12.540;2023-01-19T16:09:53;0.10;99.90
20590;DHT22;10453;50.810;12.540;2023-01-19T16:14:10;0.10;99.90
20590;DHT22;10453;50.810;12.540;2023-01-19T16:18:27;0.10;99.90
20590;DHT22;10453;50.810;12.540;2023-01-19T16:22:45;0.20;99.90
20590;DHT22;10453;50.810;12.540;2023-01-19T16:27:02;0.20;99.90
20590;DHT22;10453;50.810;12.540;2023-01-19T16:31:19;0.10;99.90
20590;DHT22;10453;50.810;12.540;2023-01-19T16:35:37;0.20;99.90
20590;DHT22;10453;50.810;12.540;2023-01-19T16:39:54;0.20;99.90
20590;DHT22;10453;50.810;12.540;2023-01-19T16:44:13;0.20;99.90
20590;DHT22;10453;50.810;12.540;2023-01-19T16:48:30;0.20;99.90
20590;DHT22;10453;50.810;12.540;2023-01-19T16:52:48;0.20;99.90
20590;DHT22;10453;50.810;12.540;2023-01-19T16:57:06;0.20;99.90
20590;DHT22;10453;50.810;12.540;2023-01-19T17:01:28;0.30;99.90
20590;DHT22;10453;50.810;12.540;2023-01-19T17:05:49;0.30;99.90
20590;DHT22;10453;50.810;12.540;2023-01-19T17:10:07;0.30;99.90
20590;DHT22;10453;50.810;12.540;2023-01-19T17:14:24;0.30;99.90
20590;DHT22;10453;50.810;12.540;2023-01-19T17:18:41;0.30;99.90
20590;DHT22;10453;50.810;12.540;2023-01-19T17:22:58;0.30;99.90
20590;DHT22;10453;50.810;12.540;2023-01-19T17:27:16;0.30;99.90
20590;DHT22;10453;50.810;12.540;2023-01-19T17:31:34;0.30;99.90
20590;DHT22;10453;50.810;12.540;2023-01-19T17:35:51;0.30;99.90
20590;DHT22;10453;50.810;12.540;2023-01-19T17:40:09;0.30;99.90
20590;DHT22;10453;50.810;12.540;2023-01-19T17:44:27;0.30;99.90
20590;DHT22;10453;50.810;12.540;2023-01-19T17:48:49;0.30;99.90
20590;DHT22;10453;50.810;12.540;2023-01-19T17:53:06;0.30;99.90
20590;DHT22;10453;50.810;12.540;2023-01-19T17:57:23;0.30;99.90
20590;DHT22;10453;50.810;12.540;2023-01-19T18:01:40;0.20;99.90
20590;DHT22;10453;50.810;12.540;2023-01-19T18:05:58;0.20;99.90
20590;DHT22;10453;50.810;12.540;2023-01-19T18:10:16;0.10;99.90
20590;DHT22;10453;50.810;12.540;2023-01-19T18:14:33;0.10;99.90
20590;DHT22;10453;50.810;12.540;2023-01-19T18:18:51;0.20;99.90
20590;DHT22;10453;50.810;12.540;2023-01-19T18:23:10;0.20;99.90
20590;DHT22;10453;50.810;12.540;2023-01-19T18:27:27;0.20;99.90
20590;DHT22;10453;50.810;12.540;2023-01-19T18:31:45;0.20;99.90
20590;DHT22;10453;50.810;12.540;2023-01-19T18:36:03;0.30;99.90
20590;DHT22;10453;50.810;12.540;2023-01-19T18:40:20;0.30;99.90
20590;DHT22;10453;50.810;12.540;2023-01-19T18:44:37;0.30;99.90
20590;DHT22;10453;50.810;12.540;2023-01-19T18:48:54;0.40;99.90
20590;DHT22;10453;50.810;12.540;2023-01-19T18:53:12;0.40;99.90
20590;DHT22;10453;50.810;12.540;2023-01-19T18:57:29;0.40;99.90
20590;DHT22;10453;50.810;12.540;2023-01-19T19:01:46;0.40;99.90
20590;DHT22;10453;50.810;12.540;2023-01-19T19:06:03;0.40;99.90
20590;DHT22;10453;50.810;12.540;2023-01-19T19:10:20;0.40;99.90
20590;DHT22;10453;50.810;12.540;2023-01-19T19:14:38;0.30;99.90
20590;DHT22;10453;50.810;12.540;2023-01-19T19:18:55;0.40;99.90
20590;DHT22;10453;50.810;12.540;2023-01-19T19:23:12;0.40;99.90
20590;DHT22;10453;50.810;12.540;2023-01-19T19:27:29;0.40;99.90
20590;DHT22;10453;50.810;12.540;2023-01-19T19:31:46;0.40;99.90
20590;DHT22;10453;50.810;12.540;2023-01-19T19:36:05;0.40;99.90
20590;DHT22;10453;50.810;12.540;2023-01-19T19:40:24;0.40;99.90
20590;DHT22;10453;50.810;12.540;2023-01-19T19:44:41;0.40;99.90
20590;DHT22;10453;50.810;12.540;2023-01-19T19:48:58;0.40;99.90
20590;DHT22;10453;50.810;12.540;2023-01-19T19:53:15;0.40;99.90
20590;DHT22;10453;50.810;12.540;2023-01-19T19:57:32;0.40;99.90
20590;DHT22;10453;50.810;12.540;2023-01-19T20:01:51;0.30;99.90
20590;DHT22;10453;50.810;12.540;2023-01-19T20:06:12;0.30;99.90
20590;DHT22;10453;50.810;12.540;2023-01-19T20:10:29;0.30;99.90
20590;DHT22;10453;50.810;12.540;2023-01-19T20:14:46;0.30;99.90
20590;DHT22;10453;50.810;12.540;2023-01-19T20:19:04;0.30;99.90
20590;DHT22;10453;50.810;12.540;2023-01-19T20:23:21;0.30;99.90
20590;DHT22;10453;50.810;12.540;2023-01-19T20:27:38;0.40;99.90
20590;DHT22;10453;50.810;12.540;2023-01-19T20:31:55;0.40;99.90
20590;DHT22;10453;50.810;12.540;2023-01-19T20:36:13;0.40;99.90
20590;DHT22;10453;50.810;12.540;2023-01-19T20:40:30;0.40;99.90
20590;DHT22;10453;50.810;12.540;2023-01-19T20:44:47;0.50;99.90
20590;DHT22;10453;50.810;12.540;2023-01-19T20:49:05;0.40;99.90
20590;DHT22;10453;50.810;12.540;2023-01-19T20:53:22;0.40;99.90
20590;DHT22;10453;50.810;12.540;2023-01-19T20:57:40;0.40;99.90
20590;DHT22;10453;50.810;12.540;2023-01-19T21:01:57;0.40;99.90
20590;DHT22;10453;50.810;12.540;2023-01-19T21:06:15;0.40;99.90
20590;DHT22;10453;50.810;12.540;2023-01-19T21:10:32;0.40;99.90
20590;DHT22;10453;50.810;12.540;2023-01-19T21:14:49;0.30;99.90
20590;DHT22;10453;50.810;12.540;2023-01-19T21:19:06;0.30;99.90
20590;DHT22;10453;50.810;12.540;2023-01-19T21:23:24;0.30;99.90
20590;DHT22;10453;50.810;12.540;2023-01-19T21:27:42;0.20;99.90
20590;DHT22;10453;50.810;12.540;2023-01-19T21:31:59;0.20;99.90
20590;DHT22;10453;50.810;12.540;2023-01-19T21:36:17;0.20;99.90
20590;DHT22;10453;50.810;12.540;2023-01-19T21:40:35;0.30;99.90
20590;DHT22;10453;50.810;12.540;2023-01-19T21:44:52;0.20;99.90
20590;DHT22;10453;50.810;12.540;2023-01-19T21:49:15;0.30;99.90
20590;DHT22;10453;50.810;12.540;2023-01-19T21:53:34;0.30;99.90
20590;DHT22;10453;50.810;12.540;2023-01-19T21:57:51;0.30;99.90
20590;DHT22;10453;50.810;12.540;2023-01-19T22:02:10;0.30;99.90
20590;DHT22;10453;50.810;12.540;2023-01-19T22:06:28;0.40;99.90
20590;DHT22;10453;50.810;12.540;2023-01-19T22:10:45;0.30;99.90
20590;DHT22;10453;50.810;12.540;2023-01-19T22:15:03;0.30;99.90
20590;DHT22;10453;50.810;12.540;2023-01-19T22:19:20;0.30;99.90
20590;DHT22;10453;50.810;12.540;2023-01-19T22:23:37;0.20;99.90
20590;DHT22;10453;50.810;12.540;2023-01-19T22:27:55;0.30;99.90
20590;DHT22;10453;50.810;12.540;2023-01-19T22:32:12;0.20;99.90
20590;DHT22;10453;50.810;12.540;2023-01-19T22:36:30;0.20;99.90
20590;DHT22;10453;50.810;12.540;2023-01-19T22:40:49;0.20;99.90
20590;DHT22;10453;50.810;12.540;2023-01-19T22:45:07;0.20;99.90
20590;DHT22;10453;50.810;12.540;2023-01-19T22:49:24;0.20;99.90
20590;DHT22;10453;50.810;12.540;2023-01-19T22:53:41;0.20;99.90
20590;DHT22;10453;50.810;12.540;2023-01-19T22:57:58;0.30;99.90
20590;DHT22;10453;50.810;12.540;2023-01-19T23:02:16;0.30;99.90
20590;DHT22;10453;50.810;12.540;2023-01-19T23:06:36;0.30;99.90
20590;DHT22;10453;50.810;12.540;2023-01-19T23:10:53;0.30;99.90
20590;DHT22;10453;50.810;12.540;2023-01-19T23:15:11;0.30;99.90
20590;DHT22;10453;50.810;12.540;2023-01-19T23:19:28;0.30;99.90
20590;DHT22;10453;50.810;12.540;2023-01-19T23:23:45;0.40;99.90
20590;DHT22;10453;50.810;12.540;2023-01-19T23:28:02;0.40;99.90
20590;DHT22;10453;50.810;12.540;2023-01-19T23:32:20;0.50;99.90
20590;DHT22;10453;50.810;12.540;2023-01-19T23:36:38;0.40;99.90
20590;DHT22;10453;50.810;12.540;2023-01-19T23:40:56;0.40;99.90
20590;DHT22;10453;50.810;12.540;2023-01-19T23:45:13;0.40;99.90
20590;DHT22;10453;50.810;12.540;2023-01-19T23:49:31;0.40;99.90
20590;DHT22;10453;50.810;12.540;2023-01-19T23:53:48;0.40;99.90
20590;DHT22;10453;50.810;12.540;2023-01-19T23:58:05;0.40;99.90
